sensor_id;sensor_type;location;lat;lon;timestamp;temperature;humidity
74657;DHT22;63185;45.642;13.764;2023-04-24T00:01:47;18.10;61.10
74657;DHT22;63185;45.642;13.764;2023-04-24T00:04:13;18.10;61.00
74657;DHT22;63185;45.642;13.764;2023-04-24T00:06:42;18.10;60.90
74657;DHT22;63185;45.642;13.764;2023-04-24T00:09:08;18.20;61.00
74657;DHT22;63185;45.642;13.764;2023-04-24T00:11:35;18.10;61.10
74657;DHT22;63185;45.642;13.764;2023-04-24T00:14:01;18.10;61.20
74657;DHT22;63185;45.642;13.764;2023-04-24T00:16:27;18.20;61.10
74657;DHT22;63185;45.642;13.764;2023-04-24T00:18:53;18.20;61.40
74657;DHT22;63185;45.642;13.764;2023-04-24T00:21:19;18.20;61.50
74657;DHT22;63185;45.642;13.764;2023-04-24T00:23:46;18.20;61.10
74657;DHT22;63185;45.642;13.764;2023-04-24T00:26:12;18.20;61.50
74657;DHT22;63185;45.642;13.764;2023-04-24T00:28:38;18.20;61.70
74657;DHT22;63185;45.642;13.764;2023-04-24T00:31:04;18.30;61.50
74657;DHT22;63185;45.642;13.764;2023-04-24T00:33:29;18.30;61.80
74657;DHT22;63185;45.642;13.764;2023-04-24T00:35:55;18.30;62.40
74657;DHT22;63185;45.642;13.764;2023-04-24T00:38:21;18.20;63.00
74657;DHT22;63185;45.642;13.764;2023-04-24T00:40:48;18.20;63.60
74657;DHT22;63185;45.642;13.764;2023-04-24T00:43:16;18.10;64.30
74657;DHT22;63185;45.642;13.764;2023-04-24T00:45:41;18.10;64.40
74657;DHT22;63185;45.642;13.764;2023-04-24T00:48:07;18.10;64.30
74657;DHT22;63185;45.642;13.764;2023-04-24T00:50:35;18.00;64.20
74657;DHT22;63185;45.642;13.764;2023-04-24T00:53:01;18.00;63.40
74657;DHT22;63185;45.642;13.764;2023-04-24T00:55:27;17.90;64.00
74657;DHT22;63185;45.642;13.764;2023-04-24T00:57:53;17.90;64.00
74657;DHT22;63185;45.642;13.764;2023-04-24T01:00:18;17.80;63.90
74657;DHT22;63185;45.642;13.764;2023-04-24T01:02:46;17.80;63.60
74657;DHT22;63185;45.642;13.764;2023-04-24T01:05:13;17.90;63.90
74657;DHT22;63185;45.642;13.764;2023-04-24T01:07:41;17.80;63.90
74657;DHT22;63185;45.642;13.764;2023-04-24T01:10:11;17.90;63.60
74657;DHT22;63185;45.642;13.764;2023-04-24T01:12:38;17.90;63.70
74657;DHT22;63185;45.642;13.764;2023-04-24T01:15:04;17.90;63.40
74657;DHT22;63185;45.642;13.764;2023-04-24T01:17:32;17.90;63.60
74657;DHT22;63185;45.642;13.764;2023-04-24T01:19:58;17.90;63.70
74657;DHT22;63185;45.642;13.764;2023-04-24T01:22:25;17.90;63.80
74657;DHT22;63185;45.642;13.764;2023-04-24T01:24:51;17.90;63.80
74657;DHT22;63185;45.642;13.764;2023-04-24T01:27:18;17.80;63.80
74657;DHT22;63185;45.642;13.764;2023-04-24T01:29:43;17.90;63.40
74657;DHT22;63185;45.642;13.764;2023-04-24T01:32:09;17.90;63.90
74657;DHT22;63185;45.642;13.764;2023-04-24T01:34:35;18.00;63.60
74657;DHT22;63185;45.642;13.764;2023-04-24T01:37:01;18.00;63.30
74657;DHT22;63185;45.642;13.764;2023-04-24T01:39:27;18.00;63.30
74657;DHT22;63185;45.642;13.764;2023-04-24T01:41:54;17.90;63.40
74657;DHT22;63185;45.642;13.764;2023-04-24T01:44:20;18.00;63.30
74657;DHT22;63185;45.642;13.764;2023-04-24T01:46:46;18.00;63.60
74657;DHT22;63185;45.642;13.764;2023-04-24T01:49:12;17.90;64.00
74657;DHT22;63185;45.642;13.764;2023-04-24T01:51:38;18.00;63.80
74657;DHT22;63185;45.642;13.764;2023-04-24T01:54:04;17.90;64.20
74657;DHT22;63185;45.642;13.764;2023-04-24T01:56:33;17.90;64.30
74657;DHT22;63185;45.642;13.764;2023-04-24T01:59:00;17.90;64.00
74657;DHT22;63185;45.642;13.764;2023-04-24T02:01:26;17.90;64.10
74657;DHT22;63185;45.642;13.764;2023-04-24T02:03:52;17.90;64.10
74657;DHT22;63185;45.642;13.764;2023-04-24T02:06:17;17.90;64.10
74657;DHT22;63185;45.642;13.764;2023-04-24T02:08:44;17.90;64.20
74657;DHT22;63185;45.642;13.764;2023-04-24T02:11:10;17.90;64.30
74657;DHT22;63185;45.642;13.764;2023-04-24T02:13:36;17.90;65.50
74657;DHT22;63185;45.642;13.764;2023-04-24T02:16:01;17.90;65.60
74657;DHT22;63185;45.642;13.764;2023-04-24T02:18:27;17.90;66.00
74657;DHT22;63185;45.642;13.764;2023-04-24T02:20:54;17.90;66.20
74657;DHT22;63185;45.642;13.764;2023-04-24T02:23:20;17.80;66.30
74657;DHT22;63185;45.642;13.764;2023-04-24T02:25:45;17.80;66.20
74657;DHT22;63185;45.642;13.764;2023-04-24T02:28:11;17.80;65.90
74657;DHT22;63185;45.642;13.764;2023-04-24T02:30:37;17.90;65.60
74657;DHT22;63185;45.642;13.764;2023-04-24T02:33:02;17.80;65.80
74657;DHT22;63185;45.642;13.764;2023-04-24T02:35:29;17.90;65.80
74657;DHT22;63185;45.642;13.764;2023-04-24T02:37:55;17.90;66.30
74657;DHT22;63185;45.642;13.764;2023-04-24T02:40:20;17.80;66.10
74657;DHT22;63185;45.642;13.764;2023-04-24T02:42:46;17.90;66.50
74657;DHT22;63185;45.642;13.764;2023-04-24T02:45:12;17.80;67.10
74657;DHT22;63185;45.642;13.764;2023-04-24T02:47:37;17.70;66.60
74657;DHT22;63185;45.642;13.764;2023-04-24T02:50:04;17.70;66.50
74657;DHT22;63185;45.642;13.764;2023-04-24T02:52:30;17.70;66.40
74657;DHT22;63185;45.642;13.764;2023-04-24T02:54:55;17.70;66.10
74657;DHT22;63185;45.642;13.764;2023-04-24T02:57:21;17.70;66.40
74657;DHT22;63185;45.642;13.764;2023-04-24T02:59:47;17.70;65.90
74657;DHT22;63185;45.642;13.764;2023-04-24T03:02:12;17.70;65.90
74657;DHT22;63185;45.642;13.764;2023-04-24T03:04:38;17.70;65.40
74657;DHT22;63185;45.642;13.764;2023-04-24T03:07:05;17.70;65.80
74657;DHT22;63185;45.642;13.764;2023-04-24T03:09:31;17.70;66.00
74657;DHT22;63185;45.642;13.764;2023-04-24T03:11:57;17.60;65.90
74657;DHT22;63185;45.642;13.764;2023-04-24T03:14:23;17.60;66.00
74657;DHT22;63185;45.642;13.764;2023-04-24T03:16:49;17.60;66.20
74657;DHT22;63185;45.642;13.764;2023-04-24T03:19:15;17.70;66.10
74657;DHT22;63185;45.642;13.764;2023-04-24T03:21:41;17.60;66.40
74657;DHT22;63185;45.642;13.764;2023-04-24T03:24:07;17.60;66.70
74657;DHT22;63185;45.642;13.764;2023-04-24T03:26:34;17.60;66.80
74657;DHT22;63185;45.642;13.764;2023-04-24T03:28:59;17.60;67.00
74657;DHT22;63185;45.642;13.764;2023-04-24T03:31:25;17.60;67.70
74657;DHT22;63185;45.642;13.764;2023-04-24T03:33:50;17.60;67.60
74657;DHT22;63185;45.642;13.764;2023-04-24T03:36:16;17.60;67.60
74657;DHT22;63185;45.642;13.764;2023-04-24T03:38:43;17.60;67.50
74657;DHT22;63185;45.642;13.764;2023-04-24T03:41:08;17.60;67.70
74657;DHT22;63185;45.642;13.764;2023-04-24T03:43:34;17.60;67.80
74657;DHT22;63185;45.642;13.764;2023-04-24T03:46:00;17.60;67.60
74657;DHT22;63185;45.642;13.764;2023-04-24T03:48:26;17.60;67.60
74657;DHT22;63185;45.642;13.764;2023-04-24T03:50:51;17.60;67.60
74657;DHT22;63185;45.642;13.764;2023-04-24T03:53:17;17.60;67.50
74657;DHT22;63185;45.642;13.764;2023-04-24T03:55:43;17.60;67.50
74657;DHT22;63185;45.642;13.764;2023-04-24T03:58:08;17.60;67.10
74657;DHT22;63185;45.642;13.764;2023-04-24T04:00:34;17.60;67.20
74657;DHT22;63185;45.642;13.764;2023-04-24T04:03:00;17.60;67.20
74657;DHT22;63185;45.642;13.764;2023-04-24T04:05:26;17.60;66.90
74657;DHT22;63185;45.642;13.764;2023-04-24T04:07:52;17.60;67.00
74657;DHT22;63185;45.642;13.764;2023-04-24T04:10:17;17.60;66.90
74657;DHT22;63185;45.642;13.764;2023-04-24T04:12:44;17.60;66.50
74657;DHT22;63185;45.642;13.764;2023-04-24T04:15:10;17.60;66.50
74657;DHT22;63185;45.642;13.764;2023-04-24T04:17:35;17.60;66.30
74657;DHT22;63185;45.642;13.764;2023-04-24T04:20:03;17.60;66.40
74657;DHT22;63185;45.642;13.764;2023-04-24T04:22:33;17.60;66.10
74657;DHT22;63185;45.642;13.764;2023-04-24T04:24:59;17.60;66.20
74657;DHT22;63185;45.642;13.764;2023-04-24T04:27:25;17.60;66.20
74657;DHT22;63185;45.642;13.764;2023-04-24T04:29:52;17.60;66.10
74657;DHT22;63185;45.642;13.764;2023-04-24T04:32:18;17.60;66.00
74657;DHT22;63185;45.642;13.764;2023-04-24T04:34:43;17.50;65.90
74657;DHT22;63185;45.642;13.764;2023-04-24T04:37:11;17.60;66.10
74657;DHT22;63185;45.642;13.764;2023-04-24T04:39:38;17.50;66.20
74657;DHT22;63185;45.642;13.764;2023-04-24T04:42:03;17.60;66.00
74657;DHT22;63185;45.642;13.764;2023-04-24T04:44:29;17.60;66.30
74657;DHT22;63185;45.642;13.764;2023-04-24T04:46:58;17.60;66.20
74657;DHT22;63185;45.642;13.764;2023-04-24T04:49:25;17.50;66.50
74657;DHT22;63185;45.642;13.764;2023-04-24T04:51:53;17.60;66.50
74657;DHT22;63185;45.642;13.764;2023-04-24T04:54:19;17.60;66.50
74657;DHT22;63185;45.642;13.764;2023-04-24T04:56:45;17.60;66.30
74657;DHT22;63185;45.642;13.764;2023-04-24T04:59:10;17.60;66.40
74657;DHT22;63185;45.642;13.764;2023-04-24T05:01:38;17.60;66.20
74657;DHT22;63185;45.642;13.764;2023-04-24T05:04:04;17.60;66.50
74657;DHT22;63185;45.642;13.764;2023-04-24T05:06:29;17.60;66.50
74657;DHT22;63185;45.642;13.764;2023-04-24T05:08:56;17.60;66.80
74657;DHT22;63185;45.642;13.764;2023-04-24T05:11:23;17.50;66.90
74657;DHT22;63185;45.642;13.764;2023-04-24T05:13:48;17.50;67.00
74657;DHT22;63185;45.642;13.764;2023-04-24T05:16:14;17.50;66.90
74657;DHT22;63185;45.642;13.764;2023-04-24T05:18:40;17.50;67.10
74657;DHT22;63185;45.642;13.764;2023-04-24T05:21:06;17.60;67.00
74657;DHT22;63185;45.642;13.764;2023-04-24T05:23:31;17.60;67.40
74657;DHT22;63185;45.642;13.764;2023-04-24T05:25:57;17.50;67.80
74657;DHT22;63185;45.642;13.764;2023-04-24T05:28:23;17.50;68.10
74657;DHT22;63185;45.642;13.764;2023-04-24T05:30:48;17.60;68.60
74657;DHT22;63185;45.642;13.764;2023-04-24T05:33:15;17.60;69.50
74657;DHT22;63185;45.642;13.764;2023-04-24T05:35:41;17.40;70.20
74657;DHT22;63185;45.642;13.764;2023-04-24T05:38:12;17.40;70.10
74657;DHT22;63185;45.642;13.764;2023-04-24T05:40:39;17.50;70.10
74657;DHT22;63185;45.642;13.764;2023-04-24T05:43:04;17.30;69.60
74657;DHT22;63185;45.642;13.764;2023-04-24T05:45:30;17.30;69.70
74657;DHT22;63185;45.642;13.764;2023-04-24T05:47:57;17.40;69.40
74657;DHT22;63185;45.642;13.764;2023-04-24T05:50:22;17.30;69.40
74657;DHT22;63185;45.642;13.764;2023-04-24T05:52:48;17.30;68.90
74657;DHT22;63185;45.642;13.764;2023-04-24T05:55:14;17.40;68.90
74657;DHT22;63185;45.642;13.764;2023-04-24T05:57:42;17.30;69.00
74657;DHT22;63185;45.642;13.764;2023-04-24T06:00:09;17.40;68.60
74657;DHT22;63185;45.642;13.764;2023-04-24T06:02:38;17.40;68.20
74657;DHT22;63185;45.642;13.764;2023-04-24T06:05:04;17.40;68.50
74657;DHT22;63185;45.642;13.764;2023-04-24T06:07:30;17.40;68.20
74657;DHT22;63185;45.642;13.764;2023-04-24T06:09:56;17.30;68.40
74657;DHT22;63185;45.642;13.764;2023-04-24T06:12:22;17.40;68.10
74657;DHT22;63185;45.642;13.764;2023-04-24T06:14:48;17.40;68.00
74657;DHT22;63185;45.642;13.764;2023-04-24T06:17:14;17.40;68.20
74657;DHT22;63185;45.642;13.764;2023-04-24T06:19:40;17.40;67.90
74657;DHT22;63185;45.642;13.764;2023-04-24T06:22:06;17.40;68.20
74657;DHT22;63185;45.642;13.764;2023-04-24T06:24:31;17.40;68.20
74657;DHT22;63185;45.642;13.764;2023-04-24T06:26:57;17.40;68.40
74657;DHT22;63185;45.642;13.764;2023-04-24T06:29:25;17.30;68.80
74657;DHT22;63185;45.642;13.764;2023-04-24T06:31:50;17.40;68.90
74657;DHT22;63185;45.642;13.764;2023-04-24T06:34:16;17.40;69.50
74657;DHT22;63185;45.642;13.764;2023-04-24T06:36:42;17.30;70.50
74657;DHT22;63185;45.642;13.764;2023-04-24T06:39:08;17.30;71.50
74657;DHT22;63185;45.642;13.764;2023-04-24T06:41:34;17.20;73.40
74657;DHT22;63185;45.642;13.764;2023-04-24T06:44:00;17.20;73.80
74657;DHT22;63185;45.642;13.764;2023-04-24T06:46:26;17.20;74.80
74657;DHT22;63185;45.642;13.764;2023-04-24T06:48:53;17.20;74.90
74657;DHT22;63185;45.642;13.764;2023-04-24T06:51:22;17.20;75.20
74657;DHT22;63185;45.642;13.764;2023-04-24T06:53:48;17.20;75.10
74657;DHT22;63185;45.642;13.764;2023-04-24T06:56:15;17.20;75.40
74657;DHT22;63185;45.642;13.764;2023-04-24T06:58:42;17.20;75.10
74657;DHT22;63185;45.642;13.764;2023-04-24T07:01:07;17.20;75.80
74657;DHT22;63185;45.642;13.764;2023-04-24T07:03:33;17.30;75.40
74657;DHT22;63185;45.642;13.764;2023-04-24T07:05:59;17.40;75.40
74657;DHT22;63185;45.642;13.764;2023-04-24T07:08:24;17.30;75.60
74657;DHT22;63185;45.642;13.764;2023-04-24T07:10:50;17.40;75.60
74657;DHT22;63185;45.642;13.764;2023-04-24T07:13:16;17.30;75.00
74657;DHT22;63185;45.642;13.764;2023-04-24T07:15:43;17.30;75.30
74657;DHT22;63185;45.642;13.764;2023-04-24T07:18:09;17.30;74.70
74657;DHT22;63185;45.642;13.764;2023-04-24T07:20:34;17.40;75.40
74657;DHT22;63185;45.642;13.764;2023-04-24T07:23:00;17.50;74.30
74657;DHT22;63185;45.642;13.764;2023-04-24T07:25:26;17.50;74.80
74657;DHT22;63185;45.642;13.764;2023-04-24T07:27:53;17.50;75.00
74657;DHT22;63185;45.642;13.764;2023-04-24T07:30:18;17.60;74.40
74657;DHT22;63185;45.642;13.764;2023-04-24T07:32:44;17.60;73.90
74657;DHT22;63185;45.642;13.764;2023-04-24T07:35:10;17.70;74.00
74657;DHT22;63185;45.642;13.764;2023-04-24T07:37:36;17.70;74.20
74657;DHT22;63185;45.642;13.764;2023-04-24T07:40:02;17.80;74.10
74657;DHT22;63185;45.642;13.764;2023-04-24T07:42:28;17.80;74.00
74657;DHT22;63185;45.642;13.764;2023-04-24T07:44:56;17.80;73.70
74657;DHT22;63185;45.642;13.764;2023-04-24T07:47:22;17.90;73.90
74657;DHT22;63185;45.642;13.764;2023-04-24T07:49:47;17.90;74.50
74657;DHT22;63185;45.642;13.764;2023-04-24T07:52:13;17.70;74.30
74657;DHT22;63185;45.642;13.764;2023-04-24T07:54:39;17.70;74.70
74657;DHT22;63185;45.642;13.764;2023-04-24T07:57:04;17.60;75.40
74657;DHT22;63185;45.642;13.764;2023-04-24T07:59:32;17.50;75.80
74657;DHT22;63185;45.642;13.764;2023-04-24T08:01:57;17.40;75.60
74657;DHT22;63185;45.642;13.764;2023-04-24T08:04:23;17.30;76.50
74657;DHT22;63185;45.642;13.764;2023-04-24T08:06:49;17.30;75.90
74657;DHT22;63185;45.642;13.764;2023-04-24T08:09:15;17.20;77.00
74657;DHT22;63185;45.642;13.764;2023-04-24T08:11:41;17.20;77.30
74657;DHT22;63185;45.642;13.764;2023-04-24T08:14:06;17.20;77.70
74657;DHT22;63185;45.642;13.764;2023-04-24T08:16:33;17.30;77.40
74657;DHT22;63185;45.642;13.764;2023-04-24T08:18:58;17.40;77.80
74657;DHT22;63185;45.642;13.764;2023-04-24T08:21:24;17.40;76.90
74657;DHT22;63185;45.642;13.764;2023-04-24T08:23:52;17.30;77.70
74657;DHT22;63185;45.642;13.764;2023-04-24T08:26:18;17.40;77.40
74657;DHT22;63185;45.642;13.764;2023-04-24T08:28:44;17.50;77.20
74657;DHT22;63185;45.642;13.764;2023-04-24T08:31:09;17.50;77.10
74657;DHT22;63185;45.642;13.764;2023-04-24T08:33:35;17.50;77.40
74657;DHT22;63185;45.642;13.764;2023-04-24T08:36:05;17.50;77.40
74657;DHT22;63185;45.642;13.764;2023-04-24T08:38:31;17.50;76.80
74657;DHT22;63185;45.642;13.764;2023-04-24T08:40:58;17.60;77.20
74657;DHT22;63185;45.642;13.764;2023-04-24T08:43:25;17.60;77.00
74657;DHT22;63185;45.642;13.764;2023-04-24T08:45:52;17.50;76.80
74657;DHT22;63185;45.642;13.764;2023-04-24T08:48:18;17.60;76.90
74657;DHT22;63185;45.642;13.764;2023-04-24T08:50:44;17.50;77.20
74657;DHT22;63185;45.642;13.764;2023-04-24T08:53:10;17.50;77.40
74657;DHT22;63185;45.642;13.764;2023-04-24T08:55:37;17.50;77.10
74657;DHT22;63185;45.642;13.764;2023-04-24T08:58:03;17.20;78.10
74657;DHT22;63185;45.642;13.764;2023-04-24T09:00:29;17.10;78.20
74657;DHT22;63185;45.642;13.764;2023-04-24T09:02:56;17.10;78.80
74657;DHT22;63185;45.642;13.764;2023-04-24T09:05:22;17.00;79.00
74657;DHT22;63185;45.642;13.764;2023-04-24T09:07:56;17.00;79.10
74657;DHT22;63185;45.642;13.764;2023-04-24T09:10:24;16.90;79.10
74657;DHT22;63185;45.642;13.764;2023-04-24T09:12:51;16.80;79.40
74657;DHT22;63185;45.642;13.764;2023-04-24T09:15:18;16.70;79.30
74657;DHT22;63185;45.642;13.764;2023-04-24T09:17:46;16.70;80.00
74657;DHT22;63185;45.642;13.764;2023-04-24T09:20:12;16.70;80.00
74657;DHT22;63185;45.642;13.764;2023-04-24T09:22:37;16.70;79.90
74657;DHT22;63185;45.642;13.764;2023-04-24T09:25:07;16.70;79.80
74657;DHT22;63185;45.642;13.764;2023-04-24T09:27:34;16.70;79.90
74657;DHT22;63185;45.642;13.764;2023-04-24T09:30:01;16.60;79.90
74657;DHT22;63185;45.642;13.764;2023-04-24T09:32:27;16.60;80.20
74657;DHT22;63185;45.642;13.764;2023-04-24T09:35:14;16.60;80.50
74657;DHT22;63185;45.642;13.764;2023-04-24T09:37:44;16.70;80.40
74657;DHT22;63185;45.642;13.764;2023-04-24T09:40:16;16.70;80.10
74657;DHT22;63185;45.642;13.764;2023-04-24T09:43:03;16.80;79.80
74657;DHT22;63185;45.642;13.764;2023-04-24T09:45:35;17.00;79.50
74657;DHT22;63185;45.642;13.764;2023-04-24T09:48:01;17.20;78.80
74657;DHT22;63185;45.642;13.764;2023-04-24T09:50:29;17.60;78.30
74657;DHT22;63185;45.642;13.764;2023-04-24T09:52:59;17.80;77.60
74657;DHT22;63185;45.642;13.764;2023-04-24T09:55:26;17.90;76.30
74657;DHT22;63185;45.642;13.764;2023-04-24T09:57:55;17.90;76.30
74657;DHT22;63185;45.642;13.764;2023-04-24T10:00:29;17.80;76.30
74657;DHT22;63185;45.642;13.764;2023-04-24T10:03:05;17.80;75.90
74657;DHT22;63185;45.642;13.764;2023-04-24T10:05:35;17.70;76.30
74657;DHT22;63185;45.642;13.764;2023-04-24T10:08:06;17.60;76.30
74657;DHT22;63185;45.642;13.764;2023-04-24T10:10:34;17.60;75.90
74657;DHT22;63185;45.642;13.764;2023-04-24T10:13:00;17.60;76.20
74657;DHT22;63185;45.642;13.764;2023-04-24T10:15:27;17.60;76.20
74657;DHT22;63185;45.642;13.764;2023-04-24T10:17:53;17.70;75.50
74657;DHT22;63185;45.642;13.764;2023-04-24T10:20:27;17.80;75.60
74657;DHT22;63185;45.642;13.764;2023-04-24T10:22:56;17.90;74.60
74657;DHT22;63185;45.642;13.764;2023-04-24T10:25:24;17.90;75.30
74657;DHT22;63185;45.642;13.764;2023-04-24T10:27:52;18.00;75.70
74657;DHT22;63185;45.642;13.764;2023-04-24T10:30:19;18.20;75.00
74657;DHT22;63185;45.642;13.764;2023-04-24T10:32:45;18.20;75.00
74657;DHT22;63185;45.642;13.764;2023-04-24T10:35:12;18.40;74.60
74657;DHT22;63185;45.642;13.764;2023-04-24T10:38:01;18.60;73.40
74657;DHT22;63185;45.642;13.764;2023-04-24T10:40:33;18.60;72.50
74657;DHT22;63185;45.642;13.764;2023-04-24T10:42:59;18.80;72.40
74657;DHT22;63185;45.642;13.764;2023-04-24T10:45:27;18.80;72.10
74657;DHT22;63185;45.642;13.764;2023-04-24T10:48:02;18.80;72.20
74657;DHT22;63185;45.642;13.764;2023-04-24T10:50:34;18.70;71.30
74657;DHT22;63185;45.642;13.764;2023-04-24T10:53:11;18.70;72.40
74657;DHT22;63185;45.642;13.764;2023-04-24T10:55:51;18.60;73.50
74657;DHT22;63185;45.642;13.764;2023-04-24T10:58:21;18.50;73.60
74657;DHT22;63185;45.642;13.764;2023-04-24T11:00:59;18.30;74.50
74657;DHT22;63185;45.642;13.764;2023-04-24T11:03:30;18.20;74.70
74657;DHT22;63185;45.642;13.764;2023-04-24T11:06:07;18.00;75.50
74657;DHT22;63185;45.642;13.764;2023-04-24T11:08:42;18.00;76.00
74657;DHT22;63185;45.642;13.764;2023-04-24T11:11:13;17.80;76.40
74657;DHT22;63185;45.642;13.764;2023-04-24T11:16:42;17.80;76.40
74657;DHT22;63185;45.642;13.764;2023-04-24T11:19:26;17.80;76.90
74657;DHT22;63185;45.642;13.764;2023-04-24T11:27:09;18.10;76.90
74657;DHT22;63185;45.642;13.764;2023-04-24T11:32:35;18.10;76.50
74657;DHT22;63185;45.642;13.764;2023-04-24T11:35:18;18.10;76.90
74657;DHT22;63185;45.642;13.764;2023-04-24T11:37:46;18.10;77.20
74657;DHT22;63185;45.642;13.764;2023-04-24T11:40:14;18.10;77.80
74657;DHT22;63185;45.642;13.764;2023-04-24T11:42:44;18.10;78.20
74657;DHT22;63185;45.642;13.764;2023-04-24T11:45:12;18.00;78.50
74657;DHT22;63185;45.642;13.764;2023-04-24T11:47:39;18.00;77.80
74657;DHT22;63185;45.642;13.764;2023-04-24T11:50:07;18.10;78.20
74657;DHT22;63185;45.642;13.764;2023-04-24T11:52:37;18.10;78.50
74657;DHT22;63185;45.642;13.764;2023-04-24T11:55:03;18.10;78.40
74657;DHT22;63185;45.642;13.764;2023-04-24T11:57:29;18.10;78.90
74657;DHT22;63185;45.642;13.764;2023-04-24T12:00:00;18.10;78.60
74657;DHT22;63185;45.642;13.764;2023-04-24T12:02:27;18.10;77.00
74657;DHT22;63185;45.642;13.764;2023-04-24T12:04:53;18.00;76.90
74657;DHT22;63185;45.642;13.764;2023-04-24T12:07:19;18.00;77.00
74657;DHT22;63185;45.642;13.764;2023-04-24T12:09:57;17.90;77.20
74657;DHT22;63185;45.642;13.764;2023-04-24T12:12:26;17.80;75.30
74657;DHT22;63185;45.642;13.764;2023-04-24T12:14:56;17.60;76.00
74657;DHT22;63185;45.642;13.764;2023-04-24T12:17:30;17.50;77.20
74657;DHT22;63185;45.642;13.764;2023-04-24T12:20:07;17.30;77.80
74657;DHT22;63185;45.642;13.764;2023-04-24T12:22:53;17.30;77.60
74657;DHT22;63185;45.642;13.764;2023-04-24T12:25:24;17.20;78.80
74657;DHT22;63185;45.642;13.764;2023-04-24T12:30:38;17.10;77.70
74657;DHT22;63185;45.642;13.764;2023-04-24T12:33:04;16.90;78.10
74657;DHT22;63185;45.642;13.764;2023-04-24T12:35:31;16.70;79.20
74657;DHT22;63185;45.642;13.764;2023-04-24T12:38:11;16.70;79.30
74657;DHT22;63185;45.642;13.764;2023-04-24T12:40:38;16.50;79.10
74657;DHT22;63185;45.642;13.764;2023-04-24T12:43:16;16.60;80.00
74657;DHT22;63185;45.642;13.764;2023-04-24T12:45:41;16.60;79.80
74657;DHT22;63185;45.642;13.764;2023-04-24T12:48:07;16.60;79.20
74657;DHT22;63185;45.642;13.764;2023-04-24T12:50:33;16.60;79.40
74657;DHT22;63185;45.642;13.764;2023-04-24T12:53:00;16.60;79.20
74657;DHT22;63185;45.642;13.764;2023-04-24T12:55:25;16.60;79.50
74657;DHT22;63185;45.642;13.764;2023-04-24T12:57:51;16.50;80.10
74657;DHT22;63185;45.642;13.764;2023-04-24T13:00:20;16.40;80.40
74657;DHT22;63185;45.642;13.764;2023-04-24T13:02:45;16.40;78.60
74657;DHT22;63185;45.642;13.764;2023-04-24T13:05:11;16.50;79.60
74657;DHT22;63185;45.642;13.764;2023-04-24T13:07:39;16.40;75.60
74657;DHT22;63185;45.642;13.764;2023-04-24T13:10:05;16.40;75.50
74657;DHT22;63185;45.642;13.764;2023-04-24T13:12:32;16.30;74.90
74657;DHT22;63185;45.642;13.764;2023-04-24T13:14:58;16.30;77.10
74657;DHT22;63185;45.642;13.764;2023-04-24T13:17:24;16.30;77.70
74657;DHT22;63185;45.642;13.764;2023-04-24T13:19:51;16.20;77.30
74657;DHT22;63185;45.642;13.764;2023-04-24T13:22:17;16.30;77.30
74657;DHT22;63185;45.642;13.764;2023-04-24T13:24:46;16.20;77.90
74657;DHT22;63185;45.642;13.764;2023-04-24T13:27:15;16.20;76.90
74657;DHT22;63185;45.642;13.764;2023-04-24T13:29:41;16.30;76.80
74657;DHT22;63185;45.642;13.764;2023-04-24T13:32:08;16.20;77.00
74657;DHT22;63185;45.642;13.764;2023-04-24T13:34:34;16.20;77.00
74657;DHT22;63185;45.642;13.764;2023-04-24T13:37:03;16.30;77.10
74657;DHT22;63185;45.642;13.764;2023-04-24T13:39:29;16.20;75.20
74657;DHT22;63185;45.642;13.764;2023-04-24T13:41:55;16.30;76.70
74657;DHT22;63185;45.642;13.764;2023-04-24T13:44:22;16.20;76.90
74657;DHT22;63185;45.642;13.764;2023-04-24T13:46:50;16.20;76.00
74657;DHT22;63185;45.642;13.764;2023-04-24T13:49:17;16.20;76.50
74657;DHT22;63185;45.642;13.764;2023-04-24T13:51:43;16.10;76.50
74657;DHT22;63185;45.642;13.764;2023-04-24T13:54:09;16.20;77.00
74657;DHT22;63185;45.642;13.764;2023-04-24T13:56:35;16.20;77.70
74657;DHT22;63185;45.642;13.764;2023-04-24T13:59:01;16.30;76.70
74657;DHT22;63185;45.642;13.764;2023-04-24T14:01:27;16.40;77.80
74657;DHT22;63185;45.642;13.764;2023-04-24T14:03:54;16.50;76.90
74657;DHT22;63185;45.642;13.764;2023-04-24T14:06:20;16.60;75.70
74657;DHT22;63185;45.642;13.764;2023-04-24T14:08:47;16.80;75.20
74657;DHT22;63185;45.642;13.764;2023-04-24T14:11:13;17.00;75.80
74657;DHT22;63185;45.642;13.764;2023-04-24T14:13:41;17.20;75.30
74657;DHT22;63185;45.642;13.764;2023-04-24T14:16:07;17.10;74.60
74657;DHT22;63185;45.642;13.764;2023-04-24T14:18:33;17.20;73.80
74657;DHT22;63185;45.642;13.764;2023-04-24T14:20:59;17.10;73.60
74657;DHT22;63185;45.642;13.764;2023-04-24T14:23:27;17.20;74.30
74657;DHT22;63185;45.642;13.764;2023-04-24T14:25:52;17.10;71.80
74657;DHT22;63185;45.642;13.764;2023-04-24T14:28:19;16.90;72.80
74657;DHT22;63185;45.642;13.764;2023-04-24T14:30:46;16.60;72.30
74657;DHT22;63185;45.642;13.764;2023-04-24T14:33:12;16.50;73.30
74657;DHT22;63185;45.642;13.764;2023-04-24T14:35:39;16.60;74.80
74657;DHT22;63185;45.642;13.764;2023-04-24T14:38:05;16.40;74.50
74657;DHT22;63185;45.642;13.764;2023-04-24T14:40:30;16.30;73.70
74657;DHT22;63185;45.642;13.764;2023-04-24T14:42:58;16.30;74.60
74657;DHT22;63185;45.642;13.764;2023-04-24T14:45:27;16.40;73.70
74657;DHT22;63185;45.642;13.764;2023-04-24T14:47:53;16.50;74.00
74657;DHT22;63185;45.642;13.764;2023-04-24T14:50:19;16.50;73.20
74657;DHT22;63185;45.642;13.764;2023-04-24T14:52:45;16.50;72.40
74657;DHT22;63185;45.642;13.764;2023-04-24T14:55:10;16.50;72.00
74657;DHT22;63185;45.642;13.764;2023-04-24T14:57:36;16.40;72.30
74657;DHT22;63185;45.642;13.764;2023-04-24T15:00:04;16.40;72.70
74657;DHT22;63185;45.642;13.764;2023-04-24T15:02:32;16.30;72.80
74657;DHT22;63185;45.642;13.764;2023-04-24T15:04:58;16.30;72.80
74657;DHT22;63185;45.642;13.764;2023-04-24T15:07:24;16.30;72.30
74657;DHT22;63185;45.642;13.764;2023-04-24T15:09:50;16.30;72.60
74657;DHT22;63185;45.642;13.764;2023-04-24T15:12:16;16.20;72.00
74657;DHT22;63185;45.642;13.764;2023-04-24T15:14:41;16.10;72.20
74657;DHT22;63185;45.642;13.764;2023-04-24T15:17:07;16.20;72.30
74657;DHT22;63185;45.642;13.764;2023-04-24T15:19:33;16.10;72.30
74657;DHT22;63185;45.642;13.764;2023-04-24T15:21:59;16.10;72.60
74657;DHT22;63185;45.642;13.764;2023-04-24T15:24:25;16.10;72.60
74657;DHT22;63185;45.642;13.764;2023-04-24T15:26:51;16.00;71.80
74657;DHT22;63185;45.642;13.764;2023-04-24T15:29:16;16.00;71.60